sensor_id;sensor_type;location;lat;lon;timestamp;pressure;altitude;pressure_sealevel;temperature;humidity
18607;BME280;9433;42.678;23.360;2022-07-29T00:01:50;95356.22;;;24.72;62.46
18607;BME280;9433;42.678;23.360;2022-07-29T00:04:17;95356.50;;;24.39;64.38
18607;BME280;9433;42.678;23.360;2022-07-29T00:06:44;95363.94;;;24.54;63.38
18607;BME280;9433;42.678;23.360;2022-07-29T00:09:11;95372.97;;;24.14;63.99
18607;BME280;9433;42.678;23.360;2022-07-29T00:11:38;95373.69;;;23.99;63.54
18607;BME280;9433;42.678;23.360;2022-07-29T00:14:05;95371.94;;;24.35;62.67
18607;BME280;9433;42.678;23.360;2022-07-29T00:16:31;95378.47;;;24.62;61.51
18607;BME280;9433;42.678;23.360;2022-07-29T00:19:00;95376.72;;;24.54;61.96
18607;BME280;9433;42.678;23.360;2022-07-29T00:21:26;95383.66;;;24.67;60.63
18607;BME280;9433;42.678;23.360;2022-07-29T00:23:53;95375.75;;;24.18;63.07
18607;BME280;9433;42.678;23.360;2022-07-29T00:26:20;95380.88;;;24.64;60.57
18607;BME280;9433;42.678;23.360;2022-07-29T00:28:47;95384.34;;;24.80;60.04
18607;BME280;9433;42.678;23.360;2022-07-29T00:31:13;95375.94;;;24.25;62.48
18607;BME280;9433;42.678;23.360;2022-07-29T00:33:40;95371.13;;;23.90;63.98
18607;BME280;9433;42.678;23.360;2022-07-29T00:36:08;95367.22;;;24.04;63.75
18607;BME280;9433;42.678;23.360;2022-07-29T00:38:34;95361.31;;;23.86;64.98
18607;BME280;9433;42.678;23.360;2022-07-29T00:41:01;95365.00;;;23.94;63.96
18607;BME280;9433;42.678;23.360;2022-07-29T00:43:28;95369.31;;;23.95;65.84
18607;BME280;9433;42.678;23.360;2022-07-29T00:45:54;95374.09;;;24.73;63.46
18607;BME280;9433;42.678;23.360;2022-07-29T00:48:21;95375.06;;;24.21;64.46
18607;BME280;9433;42.678;23.360;2022-07-29T00:50:49;95377.97;;;24.00;65.93
18607;BME280;9433;42.678;23.360;2022-07-29T00:53:17;95379.31;;;24.34;64.29
18607;BME280;9433;42.678;23.360;2022-07-29T00:55:44;95381.03;;;24.71;63.24
18607;BME280;9433;42.678;23.360;2022-07-29T00:58:12;95366.13;;;24.21;64.43
18607;BME280;9433;42.678;23.360;2022-07-29T01:00:39;95379.88;;;24.12;65.57
18607;BME280;9433;42.678;23.360;2022-07-29T01:03:07;95383.47;;;24.16;64.72
18607;BME280;9433;42.678;23.360;2022-07-29T01:05:34;95379.00;;;23.67;67.10
18607;BME280;9433;42.678;23.360;2022-07-29T01:08:02;95363.97;;;23.98;66.00
18607;BME280;9433;42.678;23.360;2022-07-29T01:10:30;95375.06;;;23.93;66.41
18607;BME280;9433;42.678;23.360;2022-07-29T01:12:59;95373.28;;;24.13;65.95
18607;BME280;9433;42.678;23.360;2022-07-29T01:15:27;95373.69;;;24.27;66.13
18607;BME280;9433;42.678;23.360;2022-07-29T01:18:00;95368.75;;;24.61;64.80
18607;BME280;9433;42.678;23.360;2022-07-29T01:20:33;95363.91;;;23.82;67.69
18607;BME280;9433;42.678;23.360;2022-07-29T01:23:21;95367.47;;;23.58;68.85
18607;BME280;9433;42.678;23.360;2022-07-29T01:26:20;95361.25;;;23.98;67.34
18607;BME280;9433;42.678;23.360;2022-07-29T01:28:58;95354.22;;;24.25;66.50
18607;BME280;9433;42.678;23.360;2022-07-29T01:31:31;95359.34;;;24.43;65.56
18607;BME280;9433;42.678;23.360;2022-07-29T01:34:02;95358.59;;;24.14;65.90
18607;BME280;9433;42.678;23.360;2022-07-29T01:36:33;95363.28;;;23.61;69.24
18607;BME280;9433;42.678;23.360;2022-07-29T01:39:06;95357.41;;;23.59;69.07
18607;BME280;9433;42.678;23.360;2022-07-29T01:41:37;95349.91;;;23.28;71.74
18607;BME280;9433;42.678;23.360;2022-07-29T01:44:12;95344.16;;;22.92;72.12
18607;BME280;9433;42.678;23.360;2022-07-29T01:46:45;95345.31;;;23.16;72.13
18607;BME280;9433;42.678;23.360;2022-07-29T01:49:16;95340.19;;;23.14;71.32
18607;BME280;9433;42.678;23.360;2022-07-29T01:51:47;95347.09;;;23.24;72.25
18607;BME280;9433;42.678;23.360;2022-07-29T01:54:20;95350.75;;;23.56;69.48
18607;BME280;9433;42.678;23.360;2022-07-29T01:56:49;95352.97;;;23.14;71.46
18607;BME280;9433;42.678;23.360;2022-07-29T01:59:20;95337.25;;;23.32;71.56
18607;BME280;9433;42.678;23.360;2022-07-29T02:01:50;95344.13;;;23.41;70.02
18607;BME280;9433;42.678;23.360;2022-07-29T02:04:19;95344.44;;;23.52;70.40
18607;BME280;9433;42.678;23.360;2022-07-29T02:06:49;95345.41;;;23.60;70.92
18607;BME280;9433;42.678;23.360;2022-07-29T02:09:16;95335.81;;;23.90;68.22
18607;BME280;9433;42.678;23.360;2022-07-29T02:11:48;95326.72;;;23.30;69.71
18607;BME280;9433;42.678;23.360;2022-07-29T02:14:19;95327.00;;;23.13;71.88
18607;BME280;9433;42.678;23.360;2022-07-29T02:16:47;95331.78;;;23.44;71.16
18607;BME280;9433;42.678;23.360;2022-07-29T02:19:17;95331.56;;;23.49;71.28
18607;BME280;9433;42.678;23.360;2022-07-29T02:21:46;95314.69;;;23.15;70.45
18607;BME280;9433;42.678;23.360;2022-07-29T02:24:14;95326.63;;;23.27;71.83
18607;BME280;9433;42.678;23.360;2022-07-29T02:26:43;95326.47;;;23.48;70.94
18607;BME280;9433;42.678;23.360;2022-07-29T02:29:11;95328.63;;;23.42;71.50
18607;BME280;9433;42.678;23.360;2022-07-29T02:31:41;95334.03;;;23.54;70.84
18607;BME280;9433;42.678;23.360;2022-07-29T02:34:10;95335.75;;;23.47;71.07
18607;BME280;9433;42.678;23.360;2022-07-29T02:36:38;95325.75;;;22.61;74.40
18607;BME280;9433;42.678;23.360;2022-07-29T02:39:08;95324.19;;;23.09;71.87
18607;BME280;9433;42.678;23.360;2022-07-29T02:41:41;95317.63;;;22.61;74.19
18607;BME280;9433;42.678;23.360;2022-07-29T02:44:11;95314.47;;;22.71;73.92
18607;BME280;9433;42.678;23.360;2022-07-29T02:46:43;95307.81;;;22.57;74.81
18607;BME280;9433;42.678;23.360;2022-07-29T02:49:15;95313.44;;;22.39;75.19
18607;BME280;9433;42.678;23.360;2022-07-29T02:51:45;95302.03;;;22.70;73.64
18607;BME280;9433;42.678;23.360;2022-07-29T02:54:20;95310.06;;;22.79;73.23
18607;BME280;9433;42.678;23.360;2022-07-29T02:56:49;95301.72;;;22.96;72.16
18607;BME280;9433;42.678;23.360;2022-07-29T02:59:24;95307.34;;;23.16;70.50
18607;BME280;9433;42.678;23.360;2022-07-29T03:01:55;95314.78;;;23.31;69.93
18607;BME280;9433;42.678;23.360;2022-07-29T03:04:25;95315.94;;;23.06;69.87
18607;BME280;9433;42.678;23.360;2022-07-29T03:06:53;95320.34;;;22.86;71.08
18607;BME280;9433;42.678;23.360;2022-07-29T03:09:21;95310.97;;;22.71;72.42
18607;BME280;9433;42.678;23.360;2022-07-29T03:11:49;95318.56;;;23.02;70.61
18607;BME280;9433;42.678;23.360;2022-07-29T03:14:17;95323.84;;;22.62;73.30
18607;BME280;9433;42.678;23.360;2022-07-29T03:16:44;95317.03;;;22.31;73.99
18607;BME280;9433;42.678;23.360;2022-07-29T03:19:13;95317.06;;;22.80;71.69
18607;BME280;9433;42.678;23.360;2022-07-29T03:21:40;95321.81;;;22.13;74.52
18607;BME280;9433;42.678;23.360;2022-07-29T03:24:07;95318.53;;;22.53;73.58
18607;BME280;9433;42.678;23.360;2022-07-29T03:26:34;95312.19;;;21.91;76.11
18607;BME280;9433;42.678;23.360;2022-07-29T03:29:01;95313.56;;;21.97;76.62
18607;BME280;9433;42.678;23.360;2022-07-29T03:31:28;95309.03;;;21.89;77.04
18607;BME280;9433;42.678;23.360;2022-07-29T03:33:54;95316.94;;;22.40;75.72
18607;BME280;9433;42.678;23.360;2022-07-29T03:36:22;95317.50;;;22.33;76.18
18607;BME280;9433;42.678;23.360;2022-07-29T03:38:50;95323.34;;;22.23;76.00
18607;BME280;9433;42.678;23.360;2022-07-29T03:41:18;95317.81;;;21.98;77.63
18607;BME280;9433;42.678;23.360;2022-07-29T03:43:47;95312.53;;;22.23;75.88
18607;BME280;9433;42.678;23.360;2022-07-29T03:46:16;95320.69;;;22.14;76.77
18607;BME280;9433;42.678;23.360;2022-07-29T03:48:46;95327.63;;;22.24;76.23
18607;BME280;9433;42.678;23.360;2022-07-29T03:51:15;95320.44;;;22.52;75.18
18607;BME280;9433;42.678;23.360;2022-07-29T03:53:43;95315.03;;;22.89;73.57
18607;BME280;9433;42.678;23.360;2022-07-29T03:56:10;95329.50;;;22.93;72.78
18607;BME280;9433;42.678;23.360;2022-07-29T03:58:41;95340.19;;;23.27;71.30
18607;BME280;9433;42.678;23.360;2022-07-29T04:01:09;95329.59;;;23.21;69.61
18607;BME280;9433;42.678;23.360;2022-07-29T04:03:36;95340.53;;;23.25;70.34
18607;BME280;9433;42.678;23.360;2022-07-29T04:06:04;95338.91;;;23.49;69.64
18607;BME280;9433;42.678;23.360;2022-07-29T04:08:32;95332.66;;;23.08;70.79
18607;BME280;9433;42.678;23.360;2022-07-29T04:11:00;95338.75;;;22.80;71.72
18607;BME280;9433;42.678;23.360;2022-07-29T04:13:27;95335.13;;;22.88;71.83
18607;BME280;9433;42.678;23.360;2022-07-29T04:15:54;95327.78;;;22.89;72.00
18607;BME280;9433;42.678;23.360;2022-07-29T04:18:21;95333.66;;;22.66;71.66
18607;BME280;9433;42.678;23.360;2022-07-29T04:20:48;95338.28;;;22.66;72.98
18607;BME280;9433;42.678;23.360;2022-07-29T04:23:15;95335.03;;;22.72;72.28
18607;BME280;9433;42.678;23.360;2022-07-29T04:25:42;95331.63;;;22.75;71.83
18607;BME280;9433;42.678;23.360;2022-07-29T04:28:10;95321.91;;;22.74;71.56
18607;BME280;9433;42.678;23.360;2022-07-29T04:30:37;95311.06;;;22.87;70.37
18607;BME280;9433;42.678;23.360;2022-07-29T04:33:06;95326.13;;;22.96;69.76
18607;BME280;9433;42.678;23.360;2022-07-29T04:35:35;95333.59;;;23.40;69.10
18607;BME280;9433;42.678;23.360;2022-07-29T04:38:03;95341.81;;;23.68;67.53
18607;BME280;9433;42.678;23.360;2022-07-29T04:40:30;95344.69;;;23.87;66.43
18607;BME280;9433;42.678;23.360;2022-07-29T04:42:58;95343.19;;;23.90;66.51
18607;BME280;9433;42.678;23.360;2022-07-29T04:45:26;95352.66;;;23.68;66.64
18607;BME280;9433;42.678;23.360;2022-07-29T04:47:53;95347.09;;;24.05;66.15
18607;BME280;9433;42.678;23.360;2022-07-29T04:50:20;95352.84;;;24.31;65.36
18607;BME280;9433;42.678;23.360;2022-07-29T04:52:47;95352.09;;;23.75;66.47
18607;BME280;9433;42.678;23.360;2022-07-29T04:55:14;95350.16;;;23.63;66.02
18607;BME280;9433;42.678;23.360;2022-07-29T04:57:40;95345.72;;;23.83;65.48
18607;BME280;9433;42.678;23.360;2022-07-29T05:00:08;95349.56;;;23.41;66.58
18607;BME280;9433;42.678;23.360;2022-07-29T05:02:37;95360.31;;;23.66;66.60
18607;BME280;9433;42.678;23.360;2022-07-29T05:05:04;95353.19;;;23.74;65.72
18607;BME280;9433;42.678;23.360;2022-07-29T05:07:31;95350.41;;;23.98;64.36
18607;BME280;9433;42.678;23.360;2022-07-29T05:09:57;95354.75;;;24.31;63.86
18607;BME280;9433;42.678;23.360;2022-07-29T05:12:24;95346.31;;;24.20;64.60
18607;BME280;9433;42.678;23.360;2022-07-29T05:14:51;95358.78;;;24.21;63.94
18607;BME280;9433;42.678;23.360;2022-07-29T05:17:18;95360.06;;;24.55;62.59
18607;BME280;9433;42.678;23.360;2022-07-29T05:19:46;95372.97;;;24.30;62.43
18607;BME280;9433;42.678;23.360;2022-07-29T05:22:13;95359.72;;;24.41;62.10
18607;BME280;9433;42.678;23.360;2022-07-29T05:24:40;95366.91;;;24.49;62.00
18607;BME280;9433;42.678;23.360;2022-07-29T05:27:07;95367.34;;;24.51;62.01
18607;BME280;9433;42.678;23.360;2022-07-29T05:29:34;95371.66;;;24.68;61.97
18607;BME280;9433;42.678;23.360;2022-07-29T05:32:02;95364.34;;;25.04;60.79
18607;BME280;9433;42.678;23.360;2022-07-29T05:34:29;95355.84;;;25.21;59.83
18607;BME280;9433;42.678;23.360;2022-07-29T05:36:57;95355.22;;;24.96;61.71
18607;BME280;9433;42.678;23.360;2022-07-29T05:39:24;95358.09;;;25.19;60.09
18607;BME280;9433;42.678;23.360;2022-07-29T05:41:51;95359.34;;;25.57;58.88
18607;BME280;9433;42.678;23.360;2022-07-29T05:44:18;95359.22;;;25.34;59.96
18607;BME280;9433;42.678;23.360;2022-07-29T05:46:44;95362.97;;;25.45;59.25
18607;BME280;9433;42.678;23.360;2022-07-29T05:49:11;95369.22;;;25.65;58.49
18607;BME280;9433;42.678;23.360;2022-07-29T05:51:38;95362.50;;;25.78;58.05
18607;BME280;9433;42.678;23.360;2022-07-29T05:54:06;95371.00;;;25.58;58.80
18607;BME280;9433;42.678;23.360;2022-07-29T05:56:35;95373.59;;;25.50;60.51
18607;BME280;9433;42.678;23.360;2022-07-29T05:59:02;95367.38;;;25.89;59.00
18607;BME280;9433;42.678;23.360;2022-07-29T06:01:29;95364.81;;;25.76;59.38
18607;BME280;9433;42.678;23.360;2022-07-29T06:03:56;95367.16;;;25.78;58.54
18607;BME280;9433;42.678;23.360;2022-07-29T06:06:23;95369.53;;;25.80;58.67
18607;BME280;9433;42.678;23.360;2022-07-29T06:08:50;95369.09;;;25.77;58.75
18607;BME280;9433;42.678;23.360;2022-07-29T06:11:18;95374.91;;;26.15;58.34
18607;BME280;9433;42.678;23.360;2022-07-29T06:13:45;95375.63;;;25.92;58.63
18607;BME280;9433;42.678;23.360;2022-07-29T06:16:11;95382.50;;;26.06;58.30
18607;BME280;9433;42.678;23.360;2022-07-29T06:18:38;95382.03;;;26.00;57.98
18607;BME280;9433;42.678;23.360;2022-07-29T06:21:08;95378.88;;;25.98;57.93
18607;BME280;9433;42.678;23.360;2022-07-29T06:23:36;95371.88;;;25.62;59.74
18607;BME280;9433;42.678;23.360;2022-07-29T06:26:03;95375.63;;;25.73;58.24
18607;BME280;9433;42.678;23.360;2022-07-29T06:28:31;95376.06;;;25.94;58.23
18607;BME280;9433;42.678;23.360;2022-07-29T06:30:58;95366.66;;;26.31;57.41
18607;BME280;9433;42.678;23.360;2022-07-29T06:33:25;95373.13;;;26.22;57.90
18607;BME280;9433;42.678;23.360;2022-07-29T06:35:52;95369.41;;;26.11;57.53
18607;BME280;9433;42.678;23.360;2022-07-29T06:38:19;95370.69;;;26.17;58.25
18607;BME280;9433;42.678;23.360;2022-07-29T06:40:45;95370.19;;;26.12;56.72
18607;BME280;9433;42.678;23.360;2022-07-29T06:43:33;95366.59;;;26.08;57.68
18607;BME280;9433;42.678;23.360;2022-07-29T06:46:03;95370.81;;;25.66;58.18
18607;BME280;9433;42.678;23.360;2022-07-29T06:48:31;95351.00;;;26.28;56.68
18607;BME280;9433;42.678;23.360;2022-07-29T06:50:59;95369.53;;;25.80;57.84
18607;BME280;9433;42.678;23.360;2022-07-29T06:53:26;95359.94;;;26.05;56.87
18607;BME280;9433;42.678;23.360;2022-07-29T06:55:53;95360.19;;;26.62;55.96
18607;BME280;9433;42.678;23.360;2022-07-29T06:58:19;95358.56;;;26.57;56.14
18607;BME280;9433;42.678;23.360;2022-07-29T07:00:48;95361.66;;;26.79;55.58
18607;BME280;9433;42.678;23.360;2022-07-29T07:03:15;95359.69;;;27.25;54.69
18607;BME280;9433;42.678;23.360;2022-07-29T07:05:42;95364.63;;;27.16;53.89
18607;BME280;9433;42.678;23.360;2022-07-29T07:08:09;95361.19;;;26.73;54.23
18607;BME280;9433;42.678;23.360;2022-07-29T07:10:36;95338.69;;;26.80;53.46
18607;BME280;9433;42.678;23.360;2022-07-29T07:13:04;95343.47;;;26.86;53.74
18607;BME280;9433;42.678;23.360;2022-07-29T07:15:31;95352.25;;;26.99;53.92
18607;BME280;9433;42.678;23.360;2022-07-29T07:17:59;95358.06;;;27.21;52.23
18607;BME280;9433;42.678;23.360;2022-07-29T07:20:26;95354.06;;;27.14;52.51
18607;BME280;9433;42.678;23.360;2022-07-29T07:22:53;95351.00;;;27.46;52.09
18607;BME280;9433;42.678;23.360;2022-07-29T07:25:20;95350.59;;;27.44;51.91
18607;BME280;9433;42.678;23.360;2022-07-29T07:27:46;95341.94;;;27.69;51.06
18607;BME280;9433;42.678;23.360;2022-07-29T07:30:13;95358.78;;;27.74;49.70
18607;BME280;9433;42.678;23.360;2022-07-29T07:32:40;95342.31;;;27.67;49.79
18607;BME280;9433;42.678;23.360;2022-07-29T07:35:09;95344.59;;;28.29;49.57
18607;BME280;9433;42.678;23.360;2022-07-29T07:37:37;95337.75;;;28.42;48.80
18607;BME280;9433;42.678;23.360;2022-07-29T07:40:06;95346.50;;;28.59;48.27
18607;BME280;9433;42.678;23.360;2022-07-29T07:42:33;95345.50;;;28.77;47.59
18607;BME280;9433;42.678;23.360;2022-07-29T07:45:00;95342.03;;;28.84;47.63
18607;BME280;9433;42.678;23.360;2022-07-29T07:47:27;95340.72;;;28.71;47.12
18607;BME280;9433;42.678;23.360;2022-07-29T07:49:54;95336.66;;;28.98;46.72
18607;BME280;9433;42.678;23.360;2022-07-29T07:52:22;95334.53;;;29.29;46.07
18607;BME280;9433;42.678;23.360;2022-07-29T07:54:49;95337.66;;;29.27;46.76
18607;BME280;9433;42.678;23.360;2022-07-29T07:57:15;95344.75;;;29.36;46.13
18607;BME280;9433;42.678;23.360;2022-07-29T07:59:42;95351.19;;;29.06;45.53
18607;BME280;9433;42.678;23.360;2022-07-29T08:02:09;95353.56;;;29.70;44.56
18607;BME280;9433;42.678;23.360;2022-07-29T08:04:36;95343.50;;;29.95;44.50
18607;BME280;9433;42.678;23.360;2022-07-29T08:07:06;95352.19;;;29.39;44.27
18607;BME280;9433;42.678;23.360;2022-07-29T08:09:35;95345.44;;;29.95;44.05
18607;BME280;9433;42.678;23.360;2022-07-29T08:12:02;95344.56;;;29.69;43.75
18607;BME280;9433;42.678;23.360;2022-07-29T08:14:31;95355.16;;;29.75;43.91
18607;BME280;9433;42.678;23.360;2022-07-29T08:16:58;95345.09;;;30.00;42.78
18607;BME280;9433;42.678;23.360;2022-07-29T08:19:25;95338.56;;;30.51;43.44
18607;BME280;9433;42.678;23.360;2022-07-29T08:21:52;95351.47;;;29.49;42.57
18607;BME280;9433;42.678;23.360;2022-07-29T08:24:19;95344.44;;;30.50;42.59
18607;BME280;9433;42.678;23.360;2022-07-29T08:27:05;95340.50;;;30.36;41.71
18607;BME280;9433;42.678;23.360;2022-07-29T08:29:31;95329.97;;;30.71;41.08
18607;BME280;9433;42.678;23.360;2022-07-29T08:31:58;95338.44;;;30.08;41.08
18607;BME280;9433;42.678;23.360;2022-07-29T08:34:25;95333.88;;;30.62;41.35
18607;BME280;9433;42.678;23.360;2022-07-29T08:36:52;95338.91;;;30.21;40.54
18607;BME280;9433;42.678;23.360;2022-07-29T08:39:19;95327.66;;;30.76;41.27
18607;BME280;9433;42.678;23.360;2022-07-29T08:41:45;95335.41;;;30.35;40.27
18607;BME280;9433;42.678;23.360;2022-07-29T08:44:15;95329.19;;;30.66;40.95
18607;BME280;9433;42.678;23.360;2022-07-29T08:46:42;95336.59;;;30.37;39.22
18607;BME280;9433;42.678;23.360;2022-07-29T08:49:09;95326.06;;;31.04;38.69
18607;BME280;9433;42.678;23.360;2022-07-29T08:51:36;95323.69;;;30.70;38.47
18607;BME280;9433;42.678;23.360;2022-07-29T08:54:05;95321.75;;;30.96;38.36
18607;BME280;9433;42.678;23.360;2022-07-29T08:56:33;95323.66;;;31.56;38.18
18607;BME280;9433;42.678;23.360;2022-07-29T08:59:04;95322.91;;;31.09;37.73
18607;BME280;9433;42.678;23.360;2022-07-29T09:01:33;95324.34;;;31.74;36.45
18607;BME280;9433;42.678;23.360;2022-07-29T09:04:04;95313.69;;;31.94;35.15
18607;BME280;9433;42.678;23.360;2022-07-29T09:06:34;95322.00;;;31.76;35.19
18607;BME280;9433;42.678;23.360;2022-07-29T09:09:03;95318.91;;;32.48;36.41
18607;BME280;9433;42.678;23.360;2022-07-29T09:11:32;95325.59;;;31.48;35.27
18607;BME280;9433;42.678;23.360;2022-07-29T09:13:58;95313.97;;;32.18;34.38
18607;BME280;9433;42.678;23.360;2022-07-29T09:16:25;95315.25;;;31.95;33.28
18607;BME280;9433;42.678;23.360;2022-07-29T09:18:53;95311.94;;;31.23;34.70
18607;BME280;9433;42.678;23.360;2022-07-29T09:21:20;95313.47;;;31.39;34.53
18607;BME280;9433;42.678;23.360;2022-07-29T09:24:08;95320.91;;;31.31;35.48
18607;BME280;9433;42.678;23.360;2022-07-29T09:26:37;95313.09;;;31.40;35.50
18607;BME280;9433;42.678;23.360;2022-07-29T09:29:09;95319.38;;;31.26;35.71
18607;BME280;9433;42.678;23.360;2022-07-29T09:31:39;95311.56;;;30.96;35.48
18607;BME280;9433;42.678;23.360;2022-07-29T09:34:09;95309.81;;;31.77;35.73
18607;BME280;9433;42.678;23.360;2022-07-29T09:36:40;95311.50;;;31.46;36.04
18607;BME280;9433;42.678;23.360;2022-07-29T09:39:07;95314.31;;;32.23;35.46
18607;BME280;9433;42.678;23.360;2022-07-29T09:41:45;95313.38;;;32.51;34.81
18607;BME280;9433;42.678;23.360;2022-07-29T09:44:12;95305.69;;;32.81;36.01
18607;BME280;9433;42.678;23.360;2022-07-29T09:46:40;95311.91;;;32.33;34.01
18607;BME280;9433;42.678;23.360;2022-07-29T09:49:10;95308.25;;;32.57;34.32
18607;BME280;9433;42.678;23.360;2022-07-29T09:51:38;95300.44;;;32.45;33.08
18607;BME280;9433;42.678;23.360;2022-07-29T09:54:24;95307.28;;;32.78;33.04
18607;BME280;9433;42.678;23.360;2022-07-29T09:56:51;95299.75;;;32.86;33.69
18607;BME280;9433;42.678;23.360;2022-07-29T09:59:18;95295.94;;;33.17;33.09
18607;BME280;9433;42.678;23.360;2022-07-29T10:01:48;95298.66;;;33.21;32.90
18607;BME280;9433;42.678;23.360;2022-07-29T10:04:17;95292.94;;;33.42;32.95
18607;BME280;9433;42.678;23.360;2022-07-29T10:07:02;95290.09;;;33.53;32.40
18607;BME280;9433;42.678;23.360;2022-07-29T10:09:30;95273.81;;;34.24;33.08
18607;BME280;9433;42.678;23.360;2022-07-29T10:12:05;95279.59;;;34.06;30.96
18607;BME280;9433;42.678;23.360;2022-07-29T10:14:33;95286.50;;;33.87;31.31
18607;BME280;9433;42.678;23.360;2022-07-29T10:17:00;95264.34;;;33.98;31.56
18607;BME280;9433;42.678;23.360;2022-07-29T10:19:30;95280.91;;;33.94;30.81
18607;BME280;9433;42.678;23.360;2022-07-29T10:21:57;95270.19;;;34.00;31.15
18607;BME280;9433;42.678;23.360;2022-07-29T10:24:26;95268.78;;;33.88;31.15
18607;BME280;9433;42.678;23.360;2022-07-29T10:26:54;95267.59;;;33.58;30.77
18607;BME280;9433;42.678;23.360;2022-07-29T10:29:21;95260.88;;;34.21;30.24
18607;BME280;9433;42.678;23.360;2022-07-29T10:31:53;95258.44;;;33.96;29.86
18607;BME280;9433;42.678;23.360;2022-07-29T10:34:34;95253.78;;;34.74;30.65
18607;BME280;9433;42.678;23.360;2022-07-29T10:37:17;95257.38;;;34.44;30.83
18607;BME280;9433;42.678;23.360;2022-07-29T10:39:54;95253.28;;;34.28;29.29
18607;BME280;9433;42.678;23.360;2022-07-29T10:42:25;95250.38;;;34.12;28.61
18607;BME280;9433;42.678;23.360;2022-07-29T10:44:54;95248.59;;;34.76;28.85
18607;BME280;9433;42.678;23.360;2022-07-29T10:47:22;95241.09;;;34.76;28.82
18607;BME280;9433;42.678;23.360;2022-07-29T10:49:58;95234.81;;;35.39;28.70
18607;BME280;9433;42.678;23.360;2022-07-29T10:52:55;95240.06;;;34.67;28.43
18607;BME280;9433;42.678;23.360;2022-07-29T10:55:33;95230.44;;;34.51;28.49
18607;BME280;9433;42.678;23.360;2022-07-29T10:58:12;95233.91;;;35.26;29.03
18607;BME280;9433;42.678;23.360;2022-07-29T11:00:39;95222.50;;;35.24;28.80
18607;BME280;9433;42.678;23.360;2022-07-29T11:03:06;95226.88;;;35.81;29.06
18607;BME280;9433;42.678;23.360;2022-07-29T11:05:52;95218.78;;;35.90;28.93
18607;BME280;9433;42.678;23.360;2022-07-29T11:08:21;95225.75;;;36.15;28.08
18607;BME280;9433;42.678;23.360;2022-07-29T11:10:52;95222.19;;;36.51;27.31
18607;BME280;9433;42.678;23.360;2022-07-29T11:13:49;95216.91;;;35.27;27.12
18607;BME280;9433;42.678;23.360;2022-07-29T11:16:18;95222.00;;;35.29;27.33
18607;BME280;9433;42.678;23.360;2022-07-29T11:19:21;95218.53;;;35.25;27.79
18607;BME280;9433;42.678;23.360;2022-07-29T11:21:49;95206.38;;;34.99;28.41
18607;BME280;9433;42.678;23.360;2022-07-29T11:24:19;95215.09;;;34.97;28.33
18607;BME280;9433;42.678;23.360;2022-07-29T11:27:07;95206.09;;;34.70;27.97
18607;BME280;9433;42.678;23.360;2022-07-29T11:29:35;95197.78;;;35.17;28.54
18607;BME280;9433;42.678;23.360;2022-07-29T11:32:12;95203.47;;;34.63;28.00
18607;BME280;9433;42.678;23.360;2022-07-29T11:34:40;95212.09;;;35.32;28.95
18607;BME280;9433;42.678;23.360;2022-07-29T11:37:19;95211.19;;;34.95;27.84
18607;BME280;9433;42.678;23.360;2022-07-29T11:42:43;95205.47;;;35.05;28.20
18607;BME280;9433;42.678;23.360;2022-07-29T11:45:12;95197.81;;;35.73;27.82
18607;BME280;9433;42.678;23.360;2022-07-29T11:47:42;95185.44;;;35.97;26.61
18607;BME280;9433;42.678;23.360;2022-07-29T11:50:14;95196.34;;;36.05;26.41
18607;BME280;9433;42.678;23.360;2022-07-29T11:52:45;95193.16;;;35.50;26.01
18607;BME280;9433;42.678;23.360;2022-07-29T11:55:13;95187.56;;;36.10;25.30
18607;BME280;9433;42.678;23.360;2022-07-29T11:57:47;95190.16;;;36.17;26.55
18607;BME280;9433;42.678;23.360;2022-07-29T12:00:25;95185.28;;;35.48;26.73
18607;BME280;9433;42.678;23.360;2022-07-29T12:02:53;95184.19;;;36.51;25.84
18607;BME280;9433;42.678;23.360;2022-07-29T12:05:20;95175.69;;;36.75;25.11
18607;BME280;9433;42.678;23.360;2022-07-29T12:07:49;95188.72;;;37.07;25.67
18607;BME280;9433;42.678;23.360;2022-07-29T12:10:16;95187.44;;;37.24;25.56
18607;BME280;9433;42.678;23.360;2022-07-29T12:12:42;95182.66;;;36.50;26.43
18607;BME280;9433;42.678;23.360;2022-07-29T12:15:18;95187.84;;;35.59;26.13
18607;BME280;9433;42.678;23.360;2022-07-29T12:17:46;95183.75;;;36.20;26.42
18607;BME280;9433;42.678;23.360;2022-07-29T12:20:14;95173.47;;;35.84;25.36
18607;BME280;9433;42.678;23.360;2022-07-29T12:22:49;95167.06;;;36.40;26.03
18607;BME280;9433;42.678;23.360;2022-07-29T12:25:16;95172.59;;;36.07;25.86
18607;BME280;9433;42.678;23.360;2022-07-29T12:27:44;95175.19;;;36.31;26.80
18607;BME280;9433;42.678;23.360;2022-07-29T12:30:13;95174.31;;;36.34;26.40
18607;BME280;9433;42.678;23.360;2022-07-29T12:32:44;95179.00;;;36.20;25.96
18607;BME280;9433;42.678;23.360;2022-07-29T12:35:14;95166.63;;;36.09;26.56
18607;BME280;9433;42.678;23.360;2022-07-29T12:37:43;95176.72;;;35.63;25.86
18607;BME280;9433;42.678;23.360;2022-07-29T12:40:13;95166.97;;;36.11;25.14
18607;BME280;9433;42.678;23.360;2022-07-29T12:43:06;95169.19;;;36.49;24.73
18607;BME280;9433;42.678;23.360;2022-07-29T12:45:34;95162.50;;;35.81;25.55
18607;BME280;9433;42.678;23.360;2022-07-29T12:48:02;95167.84;;;36.40;24.74
18607;BME280;9433;42.678;23.360;2022-07-29T12:50:29;95161.44;;;36.60;24.97
18607;BME280;9433;42.678;23.360;2022-07-29T12:53:08;95164.19;;;36.76;25.00
18607;BME280;9433;42.678;23.360;2022-07-29T12:55:42;95156.31;;;36.58;24.57
18607;BME280;9433;42.678;23.360;2022-07-29T12:58:11;95157.41;;;36.77;24.31
18607;BME280;9433;42.678;23.360;2022-07-29T13:00:39;95156.94;;;37.24;24.56
18607;BME280;9433;42.678;23.360;2022-07-29T13:03:05;95143.28;;;36.26;24.86
18607;BME280;9433;42.678;23.360;2022-07-29T13:05:39;95144.16;;;37.81;24.99
18607;BME280;9433;42.678;23.360;2022-07-29T13:08:11;95147.97;;;38.00;24.25
18607;BME280;9433;42.678;23.360;2022-07-29T13:10:38;95153.28;;;37.56;23.94
18607;BME280;9433;42.678;23.360;2022-07-29T13:13:06;95145.63;;;37.86;23.48
18607;BME280;9433;42.678;23.360;2022-07-29T13:15:35;95142.22;;;37.40;24.44